sensor_id;sensor_type;location;lat;lon;timestamp;P1;durP1;ratioP1;P2;durP2;ratioP2
13279;SDS011;6708;49.814;8.652;2023-05-03T00:00:06;3.83;;;3.33;;
13279;SDS011;6708;49.814;8.652;2023-05-03T00:02:37;4.80;;;3.60;;
13279;SDS011;6708;49.814;8.652;2023-05-03T00:05:09;4.90;;;3.13;;
13279;SDS011;6708;49.814;8.652;2023-05-03T00:07:42;5.97;;;3.30;;
13279;SDS011;6708;49.814;8.652;2023-05-03T00:10:11;5.60;;;2.93;;
13279;SDS011;6708;49.814;8.652;2023-05-03T00:12:41;4.93;;;3.43;;
13279;SDS011;6708;49.814;8.652;2023-05-03T00:15:10;5.03;;;3.23;;
13279;SDS011;6708;49.814;8.652;2023-05-03T00:17:38;3.80;;;3.43;;
13279;SDS011;6708;49.814;8.652;2023-05-03T00:20:07;4.43;;;2.90;;
13279;SDS011;6708;49.814;8.652;2023-05-03T00:22:36;3.17;;;2.90;;
13279;SDS011;6708;49.814;8.652;2023-05-03T00:25:07;3.83;;;2.93;;
13279;SDS011;6708;49.814;8.652;2023-05-03T00:27:36;3.67;;;3.23;;
13279;SDS011;6708;49.814;8.652;2023-05-03T00:30:05;5.90;;;3.50;;
13279;SDS011;6708;49.814;8.652;2023-05-03T00:32:35;6.90;;;3.53;;
13279;SDS011;6708;49.814;8.652;2023-05-03T00:35:03;3.70;;;3.13;;
13279;SDS011;6708;49.814;8.652;2023-05-03T00:37:32;3.27;;;2.97;;
13279;SDS011;6708;49.814;8.652;2023-05-03T00:40:00;3.43;;;3.13;;
13279;SDS011;6708;49.814;8.652;2023-05-03T00:42:32;4.43;;;3.57;;
13279;SDS011;6708;49.814;8.652;2023-05-03T00:45:00;3.50;;;3.20;;
13279;SDS011;6708;49.814;8.652;2023-05-03T00:47:30;5.33;;;3.20;;
13279;SDS011;6708;49.814;8.652;2023-05-03T00:49:58;3.50;;;3.20;;
13279;SDS011;6708;49.814;8.652;2023-05-03T00:52:27;3.50;;;3.20;;
13279;SDS011;6708;49.814;8.652;2023-05-03T00:54:56;5.17;;;3.60;;
13279;SDS011;6708;49.814;8.652;2023-05-03T00:57:25;3.73;;;3.43;;
13279;SDS011;6708;49.814;8.652;2023-05-03T00:59:56;4.13;;;3.77;;
13279;SDS011;6708;49.814;8.652;2023-05-03T01:02:25;4.10;;;2.70;;
13279;SDS011;6708;49.814;8.652;2023-05-03T01:04:54;4.13;;;3.17;;
13279;SDS011;6708;49.814;8.652;2023-05-03T01:07:25;3.40;;;3.13;;
13279;SDS011;6708;49.814;8.652;2023-05-03T01:10:15;3.20;;;2.90;;
13279;SDS011;6708;49.814;8.652;2023-05-03T01:12:51;3.63;;;3.33;;
13279;SDS011;6708;49.814;8.652;2023-05-03T01:15:29;3.80;;;3.10;;
13279;SDS011;6708;49.814;8.652;2023-05-03T01:18:05;3.40;;;3.10;;
13279;SDS011;6708;49.814;8.652;2023-05-03T01:20:36;3.20;;;2.97;;
13279;SDS011;6708;49.814;8.652;2023-05-03T01:23:09;5.43;;;3.30;;
13279;SDS011;6708;49.814;8.652;2023-05-03T01:25:42;3.83;;;3.30;;
13279;SDS011;6708;49.814;8.652;2023-05-03T01:28:10;6.77;;;3.50;;
13279;SDS011;6708;49.814;8.652;2023-05-03T01:30:38;5.43;;;3.53;;
13279;SDS011;6708;49.814;8.652;2023-05-03T01:33:09;3.70;;;3.40;;
13279;SDS011;6708;49.814;8.652;2023-05-03T01:35:43;3.10;;;2.90;;
13279;SDS011;6708;49.814;8.652;2023-05-03T01:38:14;3.23;;;2.93;;
13279;SDS011;6708;49.814;8.652;2023-05-03T01:40:47;4.07;;;2.93;;
13279;SDS011;6708;49.814;8.652;2023-05-03T01:43:19;3.33;;;3.00;;
13279;SDS011;6708;49.814;8.652;2023-05-03T01:45:47;3.53;;;3.33;;
13279;SDS011;6708;49.814;8.652;2023-05-03T01:48:17;3.50;;;3.20;;
13279;SDS011;6708;49.814;8.652;2023-05-03T01:50:46;5.67;;;3.33;;
13279;SDS011;6708;49.814;8.652;2023-05-03T01:53:15;4.83;;;3.07;;
13279;SDS011;6708;49.814;8.652;2023-05-03T01:55:46;3.87;;;3.50;;
13279;SDS011;6708;49.814;8.652;2023-05-03T01:58:15;5.63;;;3.30;;
13279;SDS011;6708;49.814;8.652;2023-05-03T02:00:43;4.00;;;3.60;;
13279;SDS011;6708;49.814;8.652;2023-05-03T02:03:12;4.77;;;3.20;;
13279;SDS011;6708;49.814;8.652;2023-05-03T02:05:43;4.70;;;3.67;;
13279;SDS011;6708;49.814;8.652;2023-05-03T02:08:11;3.70;;;3.37;;
13279;SDS011;6708;49.814;8.652;2023-05-03T02:10:42;3.77;;;3.47;;
13279;SDS011;6708;49.814;8.652;2023-05-03T02:13:13;3.53;;;3.23;;
13279;SDS011;6708;49.814;8.652;2023-05-03T02:15:41;6.20;;;3.60;;
13279;SDS011;6708;49.814;8.652;2023-05-03T02:18:12;4.03;;;3.27;;
13279;SDS011;6708;49.814;8.652;2023-05-03T02:20:43;4.30;;;3.73;;
13279;SDS011;6708;49.814;8.652;2023-05-03T02:23:12;6.17;;;3.33;;
13279;SDS011;6708;49.814;8.652;2023-05-03T02:25:40;4.80;;;3.83;;
13279;SDS011;6708;49.814;8.652;2023-05-03T02:28:09;4.03;;;3.37;;
13279;SDS011;6708;49.814;8.652;2023-05-03T02:30:40;3.53;;;3.30;;
13279;SDS011;6708;49.814;8.652;2023-05-03T02:33:09;3.53;;;3.33;;
13279;SDS011;6708;49.814;8.652;2023-05-03T02:35:38;3.70;;;3.40;;
13279;SDS011;6708;49.814;8.652;2023-05-03T02:38:07;4.80;;;3.73;;
13279;SDS011;6708;49.814;8.652;2023-05-03T02:40:36;3.87;;;3.40;;
13279;SDS011;6708;49.814;8.652;2023-05-03T02:43:04;4.50;;;3.57;;
13279;SDS011;6708;49.814;8.652;2023-05-03T02:45:33;3.67;;;3.37;;
13279;SDS011;6708;49.814;8.652;2023-05-03T02:48:05;3.53;;;3.33;;
13279;SDS011;6708;49.814;8.652;2023-05-03T02:50:34;3.53;;;3.33;;
13279;SDS011;6708;49.814;8.652;2023-05-03T02:53:02;4.23;;;3.53;;
13279;SDS011;6708;49.814;8.652;2023-05-03T02:55:31;3.80;;;3.33;;
13279;SDS011;6708;49.814;8.652;2023-05-03T02:58:00;3.53;;;3.33;;
13279;SDS011;6708;49.814;8.652;2023-05-03T03:00:28;3.43;;;3.23;;
13279;SDS011;6708;49.814;8.652;2023-05-03T03:02:56;4.80;;;3.97;;
13279;SDS011;6708;49.814;8.652;2023-05-03T03:05:28;4.10;;;3.80;;
13279;SDS011;6708;49.814;8.652;2023-05-03T03:07:56;3.73;;;3.43;;
13279;SDS011;6708;49.814;8.652;2023-05-03T03:10:26;3.67;;;3.37;;
13279;SDS011;6708;49.814;8.652;2023-05-03T03:12:54;4.97;;;3.40;;
13279;SDS011;6708;49.814;8.652;2023-05-03T03:15:30;3.50;;;3.30;;
13279;SDS011;6708;49.814;8.652;2023-05-03T03:17:58;4.37;;;3.70;;
13279;SDS011;6708;49.814;8.652;2023-05-03T03:20:29;4.40;;;3.93;;
13279;SDS011;6708;49.814;8.652;2023-05-03T03:22:58;3.90;;;3.60;;
13279;SDS011;6708;49.814;8.652;2023-05-03T03:25:26;4.97;;;4.00;;
13279;SDS011;6708;49.814;8.652;2023-05-03T03:27:56;3.60;;;3.30;;
13279;SDS011;6708;49.814;8.652;2023-05-03T03:30:25;4.00;;;3.70;;
13279;SDS011;6708;49.814;8.652;2023-05-03T03:33:03;5.70;;;4.20;;
13279;SDS011;6708;49.814;8.652;2023-05-03T03:35:39;4.37;;;4.03;;
13279;SDS011;6708;49.814;8.652;2023-05-03T03:38:09;6.63;;;3.97;;
13279;SDS011;6708;49.814;8.652;2023-05-03T03:40:45;3.87;;;3.57;;
13279;SDS011;6708;49.814;8.652;2023-05-03T03:43:14;5.33;;;4.17;;
13279;SDS011;6708;49.814;8.652;2023-05-03T03:45:44;4.80;;;4.40;;
13279;SDS011;6708;49.814;8.652;2023-05-03T03:48:14;10.03;;;5.10;;
13279;SDS011;6708;49.814;8.652;2023-05-03T03:50:45;5.17;;;4.20;;
13279;SDS011;6708;49.814;8.652;2023-05-03T03:53:17;5.40;;;4.07;;
13279;SDS011;6708;49.814;8.652;2023-05-03T03:55:45;4.07;;;3.87;;
13279;SDS011;6708;49.814;8.652;2023-05-03T03:58:16;4.83;;;4.37;;
13279;SDS011;6708;49.814;8.652;2023-05-03T04:00:44;5.07;;;4.53;;
13279;SDS011;6708;49.814;8.652;2023-05-03T04:03:16;4.80;;;4.40;;
13279;SDS011;6708;49.814;8.652;2023-05-03T04:05:49;4.13;;;3.73;;
13279;SDS011;6708;49.814;8.652;2023-05-03T04:08:19;4.17;;;3.80;;
13279;SDS011;6708;49.814;8.652;2023-05-03T04:10:48;4.40;;;4.00;;
13279;SDS011;6708;49.814;8.652;2023-05-03T04:13:17;4.20;;;3.87;;
13279;SDS011;6708;49.814;8.652;2023-05-03T04:15:52;5.17;;;3.93;;
13279;SDS011;6708;49.814;8.652;2023-05-03T04:18:22;4.33;;;3.93;;
13279;SDS011;6708;49.814;8.652;2023-05-03T04:20:55;8.07;;;4.23;;
13279;SDS011;6708;49.814;8.652;2023-05-03T04:23:25;6.23;;;3.83;;
13279;SDS011;6708;49.814;8.652;2023-05-03T04:25:53;6.27;;;4.93;;
13279;SDS011;6708;49.814;8.652;2023-05-03T04:28:22;5.80;;;4.93;;
13279;SDS011;6708;49.814;8.652;2023-05-03T04:30:52;4.70;;;4.37;;
13279;SDS011;6708;49.814;8.652;2023-05-03T04:33:24;4.87;;;4.53;;
13279;SDS011;6708;49.814;8.652;2023-05-03T04:36:00;4.97;;;4.43;;
13279;SDS011;6708;49.814;8.652;2023-05-03T04:38:31;4.37;;;3.97;;
13279;SDS011;6708;49.814;8.652;2023-05-03T04:41:02;4.47;;;4.17;;
13279;SDS011;6708;49.814;8.652;2023-05-03T04:43:30;6.17;;;4.63;;
13279;SDS011;6708;49.814;8.652;2023-05-03T04:45:59;4.47;;;4.10;;
13279;SDS011;6708;49.814;8.652;2023-05-03T04:48:29;4.77;;;4.37;;
13279;SDS011;6708;49.814;8.652;2023-05-03T04:51:03;4.10;;;3.90;;
13279;SDS011;6708;49.814;8.652;2023-05-03T04:53:32;4.27;;;3.87;;
13279;SDS011;6708;49.814;8.652;2023-05-03T04:56:06;4.90;;;4.50;;
13279;SDS011;6708;49.814;8.652;2023-05-03T04:58:37;4.80;;;4.37;;
13279;SDS011;6708;49.814;8.652;2023-05-03T05:01:06;5.07;;;4.50;;
13279;SDS011;6708;49.814;8.652;2023-05-03T05:03:36;6.63;;;4.67;;
13279;SDS011;6708;49.814;8.652;2023-05-03T05:06:12;8.10;;;4.97;;
13279;SDS011;6708;49.814;8.652;2023-05-03T05:08:41;4.43;;;4.03;;
13279;SDS011;6708;49.814;8.652;2023-05-03T05:11:11;5.20;;;4.70;;
13279;SDS011;6708;49.814;8.652;2023-05-03T05:13:40;4.70;;;4.33;;
13279;SDS011;6708;49.814;8.652;2023-05-03T05:16:09;4.97;;;4.57;;
13279;SDS011;6708;49.814;8.652;2023-05-03T05:18:41;4.43;;;4.03;;
13279;SDS011;6708;49.814;8.652;2023-05-03T05:21:13;4.63;;;4.30;;
13279;SDS011;6708;49.814;8.652;2023-05-03T05:23:43;5.37;;;4.53;;
13279;SDS011;6708;49.814;8.652;2023-05-03T05:26:12;6.93;;;4.53;;
13279;SDS011;6708;49.814;8.652;2023-05-03T05:28:41;5.30;;;4.80;;
13279;SDS011;6708;49.814;8.652;2023-05-03T05:31:09;4.33;;;4.00;;
13279;SDS011;6708;49.814;8.652;2023-05-03T05:33:38;8.63;;;5.53;;
13279;SDS011;6708;49.814;8.652;2023-05-03T05:36:06;5.30;;;4.43;;
13279;SDS011;6708;49.814;8.652;2023-05-03T05:38:38;4.70;;;4.33;;
13279;SDS011;6708;49.814;8.652;2023-05-03T05:41:07;5.80;;;4.80;;
13279;SDS011;6708;49.814;8.652;2023-05-03T05:43:38;7.43;;;4.77;;
13279;SDS011;6708;49.814;8.652;2023-05-03T05:46:06;5.03;;;4.57;;
13279;SDS011;6708;49.814;8.652;2023-05-03T05:48:35;4.70;;;4.27;;
13279;SDS011;6708;49.814;8.652;2023-05-03T05:51:06;4.80;;;4.30;;
13279;SDS011;6708;49.814;8.652;2023-05-03T05:53:34;7.07;;;4.70;;
13279;SDS011;6708;49.814;8.652;2023-05-03T05:56:06;8.67;;;4.50;;
13279;SDS011;6708;49.814;8.652;2023-05-03T05:58:35;4.50;;;4.10;;
13279;SDS011;6708;49.814;8.652;2023-05-03T06:01:04;6.00;;;4.17;;
13279;SDS011;6708;49.814;8.652;2023-05-03T06:03:35;3.90;;;3.60;;
13279;SDS011;6708;49.814;8.652;2023-05-03T06:06:06;4.00;;;3.70;;
13279;SDS011;6708;49.814;8.652;2023-05-03T06:08:35;4.07;;;3.80;;
13279;SDS011;6708;49.814;8.652;2023-05-03T06:11:06;5.53;;;4.20;;
13279;SDS011;6708;49.814;8.652;2023-05-03T06:13:38;4.60;;;4.07;;
13279;SDS011;6708;49.814;8.652;2023-05-03T06:16:08;4.40;;;4.10;;
13279;SDS011;6708;49.814;8.652;2023-05-03T06:18:37;8.70;;;4.27;;
13279;SDS011;6708;49.814;8.652;2023-05-03T06:21:06;7.17;;;3.80;;
13279;SDS011;6708;49.814;8.652;2023-05-03T06:23:35;4.17;;;3.73;;
13279;SDS011;6708;49.814;8.652;2023-05-03T06:26:08;4.30;;;3.83;;
13279;SDS011;6708;49.814;8.652;2023-05-03T06:28:37;8.73;;;4.17;;
13279;SDS011;6708;49.814;8.652;2023-05-03T06:31:05;11.50;;;4.33;;
13279;SDS011;6708;49.814;8.652;2023-05-03T06:33:34;4.13;;;3.83;;
13279;SDS011;6708;49.814;8.652;2023-05-03T06:36:04;5.63;;;4.07;;
13279;SDS011;6708;49.814;8.652;2023-05-03T06:38:35;7.50;;;3.77;;
13279;SDS011;6708;49.814;8.652;2023-05-03T06:41:04;4.73;;;4.30;;
13279;SDS011;6708;49.814;8.652;2023-05-03T06:43:35;4.10;;;3.70;;
13279;SDS011;6708;49.814;8.652;2023-05-03T06:46:04;4.83;;;3.80;;
13279;SDS011;6708;49.814;8.652;2023-05-03T06:48:33;4.07;;;3.53;;
13279;SDS011;6708;49.814;8.652;2023-05-03T06:51:01;6.50;;;3.83;;
13279;SDS011;6708;49.814;8.652;2023-05-03T06:53:29;4.00;;;3.70;;
13279;SDS011;6708;49.814;8.652;2023-05-03T06:55:58;5.33;;;3.57;;
13279;SDS011;6708;49.814;8.652;2023-05-03T06:58:27;3.87;;;3.47;;
13279;SDS011;6708;49.814;8.652;2023-05-03T07:00:58;4.33;;;3.37;;
13279;SDS011;6708;49.814;8.652;2023-05-03T07:03:27;8.17;;;3.73;;
13279;SDS011;6708;49.814;8.652;2023-05-03T07:05:55;4.60;;;3.63;;
13279;SDS011;6708;49.814;8.652;2023-05-03T07:08:24;3.70;;;3.37;;
13279;SDS011;6708;49.814;8.652;2023-05-03T07:10:52;6.53;;;3.30;;
13279;SDS011;6708;49.814;8.652;2023-05-03T07:13:21;4.67;;;3.43;;
13279;SDS011;6708;49.814;8.652;2023-05-03T07:15:49;3.50;;;3.20;;
13279;SDS011;6708;49.814;8.652;2023-05-03T07:18:20;3.40;;;2.90;;
13279;SDS011;6708;49.814;8.652;2023-05-03T07:20:49;4.77;;;3.50;;
13279;SDS011;6708;49.814;8.652;2023-05-03T07:23:17;3.20;;;2.90;;
13279;SDS011;6708;49.814;8.652;2023-05-03T07:25:45;3.97;;;3.60;;
13279;SDS011;6708;49.814;8.652;2023-05-03T07:28:15;4.90;;;3.70;;
13279;SDS011;6708;49.814;8.652;2023-05-03T07:30:43;4.03;;;3.73;;
13279;SDS011;6708;49.814;8.652;2023-05-03T07:33:12;4.03;;;3.73;;
13279;SDS011;6708;49.814;8.652;2023-05-03T07:35:43;3.57;;;3.27;;
13279;SDS011;6708;49.814;8.652;2023-05-03T07:38:13;3.77;;;3.47;;
13279;SDS011;6708;49.814;8.652;2023-05-03T07:40:41;7.17;;;4.00;;
13279;SDS011;6708;49.814;8.652;2023-05-03T07:43:10;4.07;;;3.77;;
13279;SDS011;6708;49.814;8.652;2023-05-03T07:45:40;7.37;;;4.37;;
13279;SDS011;6708;49.814;8.652;2023-05-03T07:48:09;4.03;;;3.67;;
13279;SDS011;6708;49.814;8.652;2023-05-03T07:50:37;4.67;;;4.17;;
13279;SDS011;6708;49.814;8.652;2023-05-03T07:53:12;5.10;;;4.60;;
13279;SDS011;6708;49.814;8.652;2023-05-03T07:55:41;4.40;;;3.60;;
13279;SDS011;6708;49.814;8.652;2023-05-03T07:58:09;4.13;;;3.73;;
13279;SDS011;6708;49.814;8.652;2023-05-03T08:00:38;4.80;;;4.13;;
13279;SDS011;6708;49.814;8.652;2023-05-03T08:03:06;3.77;;;3.47;;
13279;SDS011;6708;49.814;8.652;2023-05-03T08:05:35;5.73;;;3.40;;
13279;SDS011;6708;49.814;8.652;2023-05-03T08:08:06;5.93;;;4.00;;
13279;SDS011;6708;49.814;8.652;2023-05-03T08:10:34;6.30;;;3.87;;
13279;SDS011;6708;49.814;8.652;2023-05-03T08:13:03;7.63;;;3.90;;
13279;SDS011;6708;49.814;8.652;2023-05-03T08:15:32;4.40;;;3.67;;
13279;SDS011;6708;49.814;8.652;2023-05-03T08:18:00;3.97;;;3.60;;
13279;SDS011;6708;49.814;8.652;2023-05-03T08:20:29;4.23;;;3.83;;
13279;SDS011;6708;49.814;8.652;2023-05-03T08:23:00;5.93;;;3.80;;
13279;SDS011;6708;49.814;8.652;2023-05-03T08:25:31;4.17;;;3.77;;
13279;SDS011;6708;49.814;8.652;2023-05-03T08:28:01;3.50;;;3.20;;
13279;SDS011;6708;49.814;8.652;2023-05-03T08:30:31;4.83;;;3.97;;
13279;SDS011;6708;49.814;8.652;2023-05-03T08:32:59;3.77;;;3.47;;
13279;SDS011;6708;49.814;8.652;2023-05-03T08:35:28;4.17;;;3.60;;
13279;SDS011;6708;49.814;8.652;2023-05-03T08:37:56;4.40;;;4.00;;
13279;SDS011;6708;49.814;8.652;2023-05-03T08:40:25;4.77;;;3.80;;
13279;SDS011;6708;49.814;8.652;2023-05-03T08:42:59;4.77;;;4.13;;
13279;SDS011;6708;49.814;8.652;2023-05-03T08:45:34;4.77;;;3.40;;
13279;SDS011;6708;49.814;8.652;2023-05-03T08:48:03;6.33;;;4.13;;
13279;SDS011;6708;49.814;8.652;2023-05-03T08:50:32;7.33;;;3.80;;
13279;SDS011;6708;49.814;8.652;2023-05-03T08:53:06;4.03;;;3.73;;
13279;SDS011;6708;49.814;8.652;2023-05-03T08:55:34;5.13;;;3.73;;
13279;SDS011;6708;49.814;8.652;2023-05-03T08:58:08;6.63;;;3.60;;
13279;SDS011;6708;49.814;8.652;2023-05-03T09:00:37;4.53;;;3.80;;
13279;SDS011;6708;49.814;8.652;2023-05-03T09:03:08;3.43;;;3.23;;
13279;SDS011;6708;49.814;8.652;2023-05-03T09:05:37;3.93;;;3.47;;
13279;SDS011;6708;49.814;8.652;2023-05-03T09:08:08;4.60;;;3.47;;
13279;SDS011;6708;49.814;8.652;2023-05-03T09:10:39;5.13;;;3.80;;
13279;SDS011;6708;49.814;8.652;2023-05-03T09:13:10;4.40;;;3.30;;
13279;SDS011;6708;49.814;8.652;2023-05-03T09:15:39;3.60;;;3.30;;
13279;SDS011;6708;49.814;8.652;2023-05-03T09:18:11;5.10;;;3.70;;
13279;SDS011;6708;49.814;8.652;2023-05-03T09:20:42;4.57;;;3.53;;
13279;SDS011;6708;49.814;8.652;2023-05-03T09:23:16;3.77;;;3.47;;
13279;SDS011;6708;49.814;8.652;2023-05-03T09:25:45;4.03;;;3.60;;
13279;SDS011;6708;49.814;8.652;2023-05-03T09:28:18;5.17;;;3.53;;
13279;SDS011;6708;49.814;8.652;2023-05-03T09:30:47;4.67;;;3.90;;
13279;SDS011;6708;49.814;8.652;2023-05-03T09:33:16;5.60;;;3.63;;
13279;SDS011;6708;49.814;8.652;2023-05-03T09:35:56;4.57;;;3.90;;
13279;SDS011;6708;49.814;8.652;2023-05-03T09:38:26;9.50;;;4.57;;
13279;SDS011;6708;49.814;8.652;2023-05-03T09:40:55;5.73;;;4.60;;
13279;SDS011;6708;49.814;8.652;2023-05-03T09:43:26;7.70;;;4.23;;
13279;SDS011;6708;49.814;8.652;2023-05-03T09:46:06;4.53;;;3.77;;
13279;SDS011;6708;49.814;8.652;2023-05-03T09:48:35;6.10;;;4.63;;
13279;SDS011;6708;49.814;8.652;2023-05-03T09:51:04;4.07;;;3.77;;
13279;SDS011;6708;49.814;8.652;2023-05-03T09:53:33;4.70;;;4.30;;
13279;SDS011;6708;49.814;8.652;2023-05-03T09:56:03;4.40;;;4.00;;
13279;SDS011;6708;49.814;8.652;2023-05-03T09:58:35;6.67;;;4.17;;
13279;SDS011;6708;49.814;8.652;2023-05-03T10:01:04;4.17;;;3.67;;
13279;SDS011;6708;49.814;8.652;2023-05-03T10:03:33;4.03;;;3.73;;
13279;SDS011;6708;49.814;8.652;2023-05-03T10:06:10;4.17;;;3.80;;
13279;SDS011;6708;49.814;8.652;2023-05-03T10:08:47;5.60;;;4.20;;
13279;SDS011;6708;49.814;8.652;2023-05-03T10:11:18;7.10;;;4.33;;
13279;SDS011;6708;49.814;8.652;2023-05-03T10:13:50;5.23;;;4.17;;
13279;SDS011;6708;49.814;8.652;2023-05-03T10:16:20;8.83;;;4.43;;
13279;SDS011;6708;49.814;8.652;2023-05-03T10:18:53;6.63;;;4.70;;
13279;SDS011;6708;49.814;8.652;2023-05-03T10:21:24;4.47;;;4.07;;
13279;SDS011;6708;49.814;8.652;2023-05-03T10:24:09;4.63;;;4.27;;
13279;SDS011;6708;49.814;8.652;2023-05-03T10:26:40;4.90;;;4.50;;
13279;SDS011;6708;49.814;8.652;2023-05-03T10:35:07;4.50;;;4.10;;
13279;SDS011;6708;49.814;8.652;2023-05-03T10:37:40;4.60;;;4.20;;
13279;SDS011;6708;49.814;8.652;2023-05-03T10:40:10;5.13;;;4.20;;
13279;SDS011;6708;49.814;8.652;2023-05-03T10:42:42;4.23;;;3.83;;
13279;SDS011;6708;49.814;8.652;2023-05-03T10:50:47;9.37;;;4.00;;
13279;SDS011;6708;49.814;8.652;2023-05-03T10:53:33;3.63;;;3.37;;
13279;SDS011;6708;49.814;8.652;2023-05-03T10:56:03;8.53;;;4.20;;
13279;SDS011;6708;49.814;8.652;2023-05-03T10:58:34;5.13;;;3.80;;
13279;SDS011;6708;49.814;8.652;2023-05-03T11:01:03;4.10;;;3.50;;
13279;SDS011;6708;49.814;8.652;2023-05-03T11:03:36;3.70;;;3.40;;
13279;SDS011;6708;49.814;8.652;2023-05-03T11:06:25;3.63;;;3.40;;
13279;SDS011;6708;49.814;8.652;2023-05-03T11:08:55;3.93;;;3.60;;
13279;SDS011;6708;49.814;8.652;2023-05-03T11:11:24;4.33;;;3.93;;
13279;SDS011;6708;49.814;8.652;2023-05-03T11:13:52;6.07;;;3.57;;
13279;SDS011;6708;49.814;8.652;2023-05-03T11:16:20;3.07;;;2.77;;
13279;SDS011;6708;49.814;8.652;2023-05-03T11:18:52;4.03;;;3.40;;
13279;SDS011;6708;49.814;8.652;2023-05-03T11:21:20;6.73;;;3.43;;
13279;SDS011;6708;49.814;8.652;2023-05-03T11:23:50;3.10;;;2.90;;
13279;SDS011;6708;49.814;8.652;2023-05-03T11:26:18;3.40;;;3.10;;
13279;SDS011;6708;49.814;8.652;2023-05-03T11:28:50;3.80;;;3.23;;
13279;SDS011;6708;49.814;8.652;2023-05-03T11:31:18;2.60;;;2.40;;
13279;SDS011;6708;49.814;8.652;2023-05-03T11:33:48;3.23;;;3.03;;
13279;SDS011;6708;49.814;8.652;2023-05-03T11:36:19;5.77;;;3.27;;
13279;SDS011;6708;49.814;8.652;2023-05-03T11:38:47;3.33;;;3.13;;
13279;SDS011;6708;49.814;8.652;2023-05-03T11:41:16;2.77;;;2.57;;
13279;SDS011;6708;49.814;8.652;2023-05-03T11:43:46;2.73;;;2.43;;
13279;SDS011;6708;49.814;8.652;2023-05-03T11:46:16;7.60;;;3.00;;
13279;SDS011;6708;49.814;8.652;2023-05-03T11:48:47;3.20;;;2.90;;
13279;SDS011;6708;49.814;8.652;2023-05-03T11:51:18;2.60;;;2.40;;
13279;SDS011;6708;49.814;8.652;2023-05-03T11:53:51;5.70;;;2.63;;
13279;SDS011;6708;49.814;8.652;2023-05-03T11:56:19;2.93;;;2.63;;
13279;SDS011;6708;49.814;8.652;2023-05-03T11:58:48;2.60;;;2.50;;
13279;SDS011;6708;49.814;8.652;2023-05-03T12:01:18;2.50;;;2.40;;
13279;SDS011;6708;49.814;8.652;2023-05-03T12:03:51;5.10;;;2.73;;
13279;SDS011;6708;49.814;8.652;2023-05-03T12:06:23;3.37;;;3.17;;
13279;SDS011;6708;49.814;8.652;2023-05-03T12:08:52;2.77;;;2.57;;
13279;SDS011;6708;49.814;8.652;2023-05-03T12:11:21;3.07;;;2.83;;
13279;SDS011;6708;49.814;8.652;2023-05-03T12:13:56;2.80;;;2.47;;
13279;SDS011;6708;49.814;8.652;2023-05-03T12:16:27;4.20;;;3.60;;
13279;SDS011;6708;49.814;8.652;2023-05-03T12:18:57;3.13;;;2.93;;
13279;SDS011;6708;49.814;8.652;2023-05-03T12:24:15;2.17;;;1.97;;
13279;SDS011;6708;49.814;8.652;2023-05-03T12:26:43;3.07;;;2.77;;
13279;SDS011;6708;49.814;8.652;2023-05-03T12:29:12;3.73;;;2.23;;
13279;SDS011;6708;49.814;8.652;2023-05-03T12:31:41;2.97;;;2.60;;
13279;SDS011;6708;49.814;8.652;2023-05-03T12:34:10;3.43;;;2.63;;
13279;SDS011;6708;49.814;8.652;2023-05-03T12:36:39;2.93;;;2.27;;
13279;SDS011;6708;49.814;8.652;2023-05-03T12:39:10;3.73;;;3.20;;
13279;SDS011;6708;49.814;8.652;2023-05-03T12:41:39;2.67;;;2.47;;
13279;SDS011;6708;49.814;8.652;2023-05-03T12:44:07;2.30;;;2.10;;
13279;SDS011;6708;49.814;8.652;2023-05-03T12:46:36;2.47;;;2.20;;
13279;SDS011;6708;49.814;8.652;2023-05-03T12:49:04;2.50;;;2.33;;
13279;SDS011;6708;49.814;8.652;2023-05-03T12:51:33;3.37;;;3.07;;
13279;SDS011;6708;49.814;8.652;2023-05-03T12:54:02;3.60;;;2.23;;
13279;SDS011;6708;49.814;8.652;2023-05-03T12:56:33;2.60;;;2.20;;
13279;SDS011;6708;49.814;8.652;2023-05-03T12:59:01;2.73;;;2.63;;
13279;SDS011;6708;49.814;8.652;2023-05-03T13:01:30;2.80;;;2.17;;
13279;SDS011;6708;49.814;8.652;2023-05-03T13:03:58;2.07;;;1.97;;
13279;SDS011;6708;49.814;8.652;2023-05-03T13:06:26;2.63;;;2.43;;
13279;SDS011;6708;49.814;8.652;2023-05-03T13:08:56;2.40;;;2.30;;
13279;SDS011;6708;49.814;8.652;2023-05-03T13:11:26;3.63;;;2.30;;
13279;SDS011;6708;49.814;8.652;2023-05-03T13:13:59;2.07;;;1.93;;
13279;SDS011;6708;49.814;8.652;2023-05-03T13:16:27;2.13;;;2.00;;
13279;SDS011;6708;49.814;8.652;2023-05-03T13:18:56;2.27;;;2.17;;
13279;SDS011;6708;49.814;8.652;2023-05-03T13:21:25;2.47;;;2.27;;
13279;SDS011;6708;49.814;8.652;2023-05-03T13:23:54;2.00;;;1.90;;
13279;SDS011;6708;49.814;8.652;2023-05-03T13:26:22;1.77;;;1.67;;
13279;SDS011;6708;49.814;8.652;2023-05-03T13:28:51;7.35;;;2.03;;
13279;SDS011;6708;49.814;8.652;2023-05-03T13:31:22;1.98;;;1.75;;
13279;SDS011;6708;49.814;8.652;2023-05-03T13:33:51;4.93;;;1.95;;
13279;SDS011;6708;49.814;8.652;2023-05-03T13:36:21;1.73;;;1.50;;
13279;SDS011;6708;49.814;8.652;2023-05-03T13:38:50;4.40;;;2.80;;
13279;SDS011;6708;49.814;8.652;2023-05-03T13:41:19;2.57;;;2.10;;
13279;SDS011;6708;49.814;8.652;2023-05-03T13:43:48;5.80;;;2.00;;
13279;SDS011;6708;49.814;8.652;2023-05-03T13:46:17;1.87;;;1.77;;
13279;SDS011;6708;49.814;8.652;2023-05-03T13:48:49;3.03;;;1.90;;
13279;SDS011;6708;49.814;8.652;2023-05-03T13:51:20;1.70;;;1.60;;
13279;SDS011;6708;49.814;8.652;2023-05-03T13:53:49;1.93;;;1.83;;
13279;SDS011;6708;49.814;8.652;2023-05-03T13:56:17;2.27;;;1.80;;
13279;SDS011;6708;49.814;8.652;2023-05-03T13:58:45;1.50;;;1.47;;
13279;SDS011;6708;49.814;8.652;2023-05-03T14:01:14;3.20;;;1.77;;
13279;SDS011;6708;49.814;8.652;2023-05-03T14:03:42;2.10;;;1.93;;
13279;SDS011;6708;49.814;8.652;2023-05-03T14:06:13;3.93;;;1.93;;
13279;SDS011;6708;49.814;8.652;2023-05-03T14:08:41;1.87;;;1.77;;
13279;SDS011;6708;49.814;8.652;2023-05-03T14:11:13;2.20;;;2.10;;
13279;SDS011;6708;49.814;8.652;2023-05-03T14:13:41;1.77;;;1.60;;
13279;SDS011;6708;49.814;8.652;2023-05-03T14:16:14;2.87;;;1.77;;
13279;SDS011;6708;49.814;8.652;2023-05-03T14:18:42;1.80;;;1.70;;
13279;SDS011;6708;49.814;8.652;2023-05-03T14:21:14;1.60;;;1.33;;
13279;SDS011;6708;49.814;8.652;2023-05-03T14:23:42;1.70;;;1.60;;
13279;SDS011;6708;49.814;8.652;2023-05-03T14:26:11;2.07;;;1.87;;
13279;SDS011;6708;49.814;8.652;2023-05-03T14:28:40;1.50;;;1.50;;
13279;SDS011;6708;49.814;8.652;2023-05-03T14:31:09;3.03;;;2.33;;
13279;SDS011;6708;49.814;8.652;2023-05-03T14:33:37;3.90;;;2.00;;
13279;SDS011;6708;49.814;8.652;2023-05-03T14:36:06;1.73;;;1.63;;
13279;SDS011;6708;49.814;8.652;2023-05-03T14:38:37;1.63;;;1.57;;
13279;SDS011;6708;49.814;8.652;2023-05-03T14:41:06;7.53;;;1.97;;
13279;SDS011;6708;49.814;8.652;2023-05-03T14:43:36;1.90;;;1.80;;
13279;SDS011;6708;49.814;8.652;2023-05-03T14:46:04;1.63;;;1.50;;
13279;SDS011;6708;49.814;8.652;2023-05-03T14:48:33;2.93;;;1.33;;
13279;SDS011;6708;49.814;8.652;2023-05-03T14:51:02;1.57;;;1.50;;
13279;SDS011;6708;49.814;8.652;2023-05-03T14:53:31;4.70;;;1.97;;
13279;SDS011;6708;49.814;8.652;2023-05-03T14:56:02;1.87;;;1.77;;
13279;SDS011;6708;49.814;8.652;2023-05-03T14:58:31;1.53;;;1.43;;
13279;SDS011;6708;49.814;8.652;2023-05-03T15:00:59;1.50;;;1.40;;
13279;SDS011;6708;49.814;8.652;2023-05-03T15:03:28;1.47;;;1.37;;
13279;SDS011;6708;49.814;8.652;2023-05-03T15:05:56;1.45;;;1.45;;
13279;SDS011;6708;49.814;8.652;2023-05-03T15:08:25;1.63;;;1.52;;
13279;SDS011;6708;49.814;8.652;2023-05-03T15:10:53;2.28;;;2.03;;
13279;SDS011;6708;49.814;8.652;2023-05-03T15:13:24;1.52;;;1.45;;
13279;SDS011;6708;49.814;8.652;2023-05-03T15:15:52;1.88;;;1.70;;
13279;SDS011;6708;49.814;8.652;2023-05-03T15:18:22;2.00;;;1.80;;
13279;SDS011;6708;49.814;8.652;2023-05-03T15:20:51;2.95;;;1.55;;
13279;SDS011;6708;49.814;8.652;2023-05-03T15:23:19;1.10;;;1.10;;
13279;SDS011;6708;49.814;8.652;2023-05-03T15:25:48;1.33;;;1.33;;
13279;SDS011;6708;49.814;8.652;2023-05-03T15:28:16;1.63;;;1.42;;
13279;SDS011;6708;49.814;8.652;2023-05-03T15:30:47;1.80;;;1.70;;